createdAt,value
2018-05-27T00:02:15.553Z,2.0
2018-05-27T00:12:27.632Z,2.0
2018-05-27T00:22:41.330Z,1.9
2018-05-27T00:32:55.659Z,1.7
2018-05-27T00:43:41.323Z,3.1
2018-05-27T00:55:12.439Z,1.7
2018-05-27T01:05:58.682Z,1.7
2018-05-27T01:16:13.060Z,2.0
2018-05-27T01:26:27.022Z,2.1
2018-05-27T01:37:24.130Z,1.9
2018-05-27T01:47:56.152Z,1.2
2018-05-27T01:58:10.219Z,3.0
2018-05-27T02:08:55.524Z,2.7
2018-05-27T02:19:10.107Z,2.0
2018-05-27T02:29:22.147Z,3.1
2018-05-27T02:40:07.966Z,2.9
2018-05-27T02:50:53.656Z,3.4
2018-05-27T03:01:06.204Z,2.1
2018-05-27T03:11:51.682Z,2.1
2018-05-27T03:22:37.444Z,3.4
2018-05-27T03:33:23.377Z,2.7
2018-05-27T03:44:08.885Z,3.7
2018-05-27T03:54:20.420Z,2.6
2018-05-27T04:04:34.893Z,3.2
2018-05-27T04:14:50.325Z,3.7
2018-05-27T04:25:04.652Z,2.9
2018-05-27T04:35:19.257Z,4.2
2018-05-27T04:45:33.248Z,3.0
2018-05-27T04:55:47.822Z,3.6
2018-05-27T05:06:02.806Z,4.4
2018-05-27T05:16:17.114Z,3.2
2018-05-27T05:26:31.366Z,4.2
2018-05-27T05:36:45.472Z,3.3
2018-05-27T05:46:59.907Z,4.6
2018-05-27T05:57:12.219Z,3.7
2018-05-27T06:07:26.052Z,3.0
2018-05-27T06:17:42.354Z,5.1
2018-05-27T06:27:56.395Z,3.5
2018-05-27T06:38:10.831Z,5.4
2018-05-27T06:49:57.166Z,3.8
2018-05-27T07:00:11.394Z,4.2
2018-05-27T07:10:25.683Z,5.2
2018-05-27T07:21:13.143Z,3.6
2018-05-27T07:32:55.628Z,3.6
2018-05-27T07:43:09.631Z,3.5
2018-05-27T07:55:10.374Z,4.3
2018-05-27T08:05:24.464Z,3.2
2018-05-27T08:16:55.033Z,3.1
2018-05-27T08:27:09.551Z,3.1
2018-05-27T08:38:45.848Z,2.7
2018-05-27T08:49:00.876Z,3.1
2018-05-27T08:59:13.400Z,3.1
2018-05-27T09:09:25.413Z,2.2
2018-05-27T09:20:24.886Z,2.8
2018-05-27T09:31:09.686Z,2.2
2018-05-27T09:41:55.332Z,2.0
2018-05-27T09:52:40.655Z,2.9
2018-05-27T10:02:54.627Z,2.9
2018-05-27T10:13:09.502Z,2.6
2018-05-27T10:23:23.346Z,2.1
2018-05-27T10:34:08.827Z,1.7
2018-05-27T10:45:31.541Z,1.9
2018-05-27T10:57:21.144Z,1.9
2018-05-27T11:08:06.660Z,2.2
2018-05-27T11:18:52.442Z,1.6
2018-05-27T11:29:37.365Z,1.8
2018-05-27T11:40:23.652Z,2.4
2018-05-27T11:50:38.594Z,2.2
2018-05-27T12:01:24.452Z,1.9
2018-05-27T12:12:10.141Z,2.3
2018-05-27T12:24:30.781Z,1.9
2018-05-27T12:34:43.198Z,1.8
2018-05-27T12:45:28.857Z,2.0
2018-05-27T12:57:09.424Z,2.8
2018-05-27T13:18:12.456Z,2.7
2018-05-27T13:28:26.736Z,2.8
2018-05-27T13:38:40.629Z,2.1
2018-05-27T13:49:26.509Z,1.9
2018-05-27T14:00:56.923Z,2.2
2018-05-27T14:11:12.616Z,2.3
2018-05-27T14:21:26.924Z,2.5
2018-05-27T14:31:41.942Z,2.1
2018-05-27T14:41:58.933Z,2.9
2018-05-27T14:52:16.504Z,2.9
2018-05-27T15:02:30.901Z,2.4
2018-05-27T15:12:45.436Z,2.6
2018-05-27T15:22:57.189Z,3.5
2018-05-27T15:33:11.739Z,3.0
2018-05-27T15:43:27.205Z,2.7
2018-05-27T15:53:46.443Z,3.1
2018-05-27T16:03:58.486Z,3.7
2018-05-27T16:14:14.608Z,2.4
2018-05-27T16:24:30.791Z,3.2
2018-05-27T16:34:47.152Z,4.0
2018-05-27T16:45:32.795Z,3.4
2018-05-27T16:55:47.886Z,2.1
2018-05-27T17:06:34.833Z,3.8
2018-05-27T17:16:49.880Z,3.1
2018-05-27T17:27:03.872Z,2.9
2018-05-27T17:37:59.763Z,2.8
2018-05-27T17:48:13.527Z,2.8
2018-05-27T17:58:33.844Z,3.2
2018-05-27T18:09:19.596Z,3.1
2018-05-27T18:20:06.042Z,2.7
2018-05-27T18:30:20.654Z,3.3
2018-05-27T18:55:37.580Z,3.1
2018-05-27T19:22:43.772Z,4.2
2018-05-27T19:33:38.070Z,3.6
2018-05-27T19:44:29.916Z,4.7
2018-05-27T20:06:59.777Z,4.3
2018-05-27T20:35:01.843Z,5.7
2018-05-27T21:11:48.355Z,7.8
2018-05-27T21:22:00.725Z,3.6
2018-05-27T21:32:45.915Z,7.1
2018-05-27T21:43:00.809Z,5.0
2018-05-27T21:53:15.118Z,4.8
2018-05-27T22:03:29.278Z,5.5
2018-05-27T22:13:53.849Z,4.1
2018-05-27T22:25:14.344Z,9.0
2018-05-27T22:36:01.925Z,9.9
2018-05-27T22:46:47.787Z,8.5
2018-05-27T22:57:00.109Z,6.1
2018-05-27T23:07:14.538Z,7.1
2018-05-27T23:17:31.453Z,6.9
2018-05-27T23:28:18.212Z,8.7
2018-05-27T23:39:04.912Z,11.6
2018-05-27T23:49:19.395Z,8.5
2018-05-27T23:59:34.360Z,7.3
